メインページ
METAR-TAF:

METAR-TAF

空港 :

ジザン, サウジアラビア

緯度: 16-54N, 経度: 042-35E, 海抜: 6m

現時点の気象観測

当レポートは58分前の11:00(UTC)に作成
南西の風 11kt
気温 31°C
湿度 66%
気圧 1014 hPa
視程10km以上
高度3000ftの雲はほとんどない

METAR: OEGN 121100Z 23011KT 9999 FEW030 31/24 Q1014 NOSIG

時間: 14:58 (11:58 UTC)

予報

当レポートは58分前の11:00(UTC)に作成
予報は12日の 12時(UTC)から 13日の 18時(UTC)まで有効
西の風 8kt
視程: 7000m
高度3000ftの雲は散在している
12日の 12時(UTC)から 12日の 24時(UTC)まで一時的に
高度3500ftの雲はほとんどない, 積乱雲.
12日の 18時(UTC)から 12日の 20時(UTC)まで徐々に
変向風 3kt

TAF: OEGN 121100Z 1212/1318 26008KT 7000 SCT030 TEMPO 1212/1224 FEW035CB BECMG 1218/1220 VRB03KT

4,000以上の空港の気象観測と天気予報(METAR報とTAF報)

利用可能な観測所は地図上に黄色い丸と赤い丸で示す。

丸の上にカーソルを重ねると観測所名を参照できる。

次にクリックすると気象観測と天気予報を参照できる。

マップの切り替え:黒色「×」印の緑ボタンをクリックして拡大、「-」印の緑ボタンをクリックして縮小、緑色の三角印をクリックして隣りの地図に切り替え


METAR-TAF: